sensor_id;sensor_type;location;lat;lon;timestamp;P1;durP1;ratioP1;P2;durP2;ratioP2
3939;SDS011;1984;48.312;9.244;2023-03-29T00:00:44;2.30;;;2.20;;
3939;SDS011;1984;48.312;9.244;2023-03-29T00:03:09;2.87;;;2.30;;
3939;SDS011;1984;48.312;9.244;2023-03-29T00:05:37;2.43;;;2.00;;
3939;SDS011;1984;48.312;9.244;2023-03-29T00:08:05;2.50;;;2.27;;
3939;SDS011;1984;48.312;9.244;2023-03-29T00:10:31;4.40;;;2.13;;
3939;SDS011;1984;48.312;9.244;2023-03-29T00:12:57;3.13;;;2.27;;
3939;SDS011;1984;48.312;9.244;2023-03-29T00:15:23;2.73;;;2.10;;
3939;SDS011;1984;48.312;9.244;2023-03-29T00:17:49;2.20;;;2.10;;
3939;SDS011;1984;48.312;9.244;2023-03-29T00:20:15;5.80;;;3.07;;
3939;SDS011;1984;48.312;9.244;2023-03-29T00:22:41;7.40;;;2.40;;
3939;SDS011;1984;48.312;9.244;2023-03-29T00:25:10;3.33;;;2.20;;
3939;SDS011;1984;48.312;9.244;2023-03-29T00:27:36;2.80;;;2.60;;
3939;SDS011;1984;48.312;9.244;2023-03-29T00:30:03;5.07;;;2.47;;
3939;SDS011;1984;48.312;9.244;2023-03-29T00:32:31;5.23;;;2.27;;
3939;SDS011;1984;48.312;9.244;2023-03-29T00:34:58;2.77;;;2.50;;
3939;SDS011;1984;48.312;9.244;2023-03-29T00:37:29;2.07;;;1.97;;
3939;SDS011;1984;48.312;9.244;2023-03-29T00:39:54;4.87;;;2.13;;
3939;SDS011;1984;48.312;9.244;2023-03-29T00:42:20;2.80;;;2.20;;
3939;SDS011;1984;48.312;9.244;2023-03-29T00:45:08;2.20;;;2.07;;
3939;SDS011;1984;48.312;9.244;2023-03-29T00:47:45;3.30;;;2.37;;
3939;SDS011;1984;48.312;9.244;2023-03-29T00:50:55;3.20;;;2.23;;
3939;SDS011;1984;48.312;9.244;2023-03-29T00:53:10;2.20;;;2.10;;
3939;SDS011;1984;48.312;9.244;2023-03-29T00:56:05;2.73;;;2.23;;
3939;SDS011;1984;48.312;9.244;2023-03-29T01:01:13;2.43;;;1.93;;
3939;SDS011;1984;48.312;9.244;2023-03-29T01:03:42;3.17;;;2.70;;
3939;SDS011;1984;48.312;9.244;2023-03-29T01:06:14;3.03;;;2.23;;
3939;SDS011;1984;48.312;9.244;2023-03-29T01:08:43;5.37;;;2.27;;
3939;SDS011;1984;48.312;9.244;2023-03-29T01:11:17;2.80;;;2.27;;
3939;SDS011;1984;48.312;9.244;2023-03-29T01:13:53;2.83;;;2.57;;
3939;SDS011;1984;48.312;9.244;2023-03-29T01:16:23;5.97;;;2.70;;
3939;SDS011;1984;48.312;9.244;2023-03-29T01:18:52;5.83;;;3.00;;
3939;SDS011;1984;48.312;9.244;2023-03-29T01:21:22;2.47;;;2.30;;
3939;SDS011;1984;48.312;9.244;2023-03-29T01:23:57;2.67;;;2.47;;
3939;SDS011;1984;48.312;9.244;2023-03-29T01:29:19;3.00;;;2.67;;
3939;SDS011;1984;48.312;9.244;2023-03-29T01:32:04;2.77;;;2.43;;
3939;SDS011;1984;48.312;9.244;2023-03-29T01:34:52;6.23;;;2.90;;
3939;SDS011;1984;48.312;9.244;2023-03-29T01:39:55;2.70;;;2.27;;
3939;SDS011;1984;48.312;9.244;2023-03-29T01:42:25;2.77;;;2.47;;
3939;SDS011;1984;48.312;9.244;2023-03-29T01:45:19;4.10;;;2.97;;
3939;SDS011;1984;48.312;9.244;2023-03-29T01:50:45;4.50;;;2.73;;
3939;SDS011;1984;48.312;9.244;2023-03-29T01:53:20;4.97;;;2.70;;
3939;SDS011;1984;48.312;9.244;2023-03-29T01:55:49;3.23;;;2.77;;
3939;SDS011;1984;48.312;9.244;2023-03-29T01:58:18;4.23;;;2.97;;
3939;SDS011;1984;48.312;9.244;2023-03-29T02:00:51;3.37;;;2.80;;
3939;SDS011;1984;48.312;9.244;2023-03-29T02:03:19;4.63;;;3.30;;
3939;SDS011;1984;48.312;9.244;2023-03-29T02:05:52;6.30;;;2.67;;
3939;SDS011;1984;48.312;9.244;2023-03-29T02:08:19;4.73;;;3.47;;
3939;SDS011;1984;48.312;9.244;2023-03-29T02:10:46;5.93;;;3.63;;
3939;SDS011;1984;48.312;9.244;2023-03-29T02:13:12;2.67;;;2.47;;
3939;SDS011;1984;48.312;9.244;2023-03-29T02:15:37;5.03;;;2.60;;
3939;SDS011;1984;48.312;9.244;2023-03-29T02:18:03;7.20;;;2.60;;
3939;SDS011;1984;48.312;9.244;2023-03-29T02:20:31;3.63;;;2.37;;
3939;SDS011;1984;48.312;9.244;2023-03-29T02:23:03;2.17;;;2.00;;
3939;SDS011;1984;48.312;9.244;2023-03-29T02:25:30;2.90;;;2.60;;
3939;SDS011;1984;48.312;9.244;2023-03-29T02:27:56;6.90;;;2.27;;
3939;SDS011;1984;48.312;9.244;2023-03-29T02:30:23;2.13;;;2.03;;
3939;SDS011;1984;48.312;9.244;2023-03-29T02:33:03;4.03;;;2.90;;
3939;SDS011;1984;48.312;9.244;2023-03-29T02:35:36;2.67;;;2.33;;
3939;SDS011;1984;48.312;9.244;2023-03-29T02:38:09;3.20;;;2.70;;
3939;SDS011;1984;48.312;9.244;2023-03-29T02:40:36;7.63;;;2.77;;
3939;SDS011;1984;48.312;9.244;2023-03-29T02:43:03;3.40;;;2.80;;
3939;SDS011;1984;48.312;9.244;2023-03-29T02:45:31;2.83;;;2.13;;
3939;SDS011;1984;48.312;9.244;2023-03-29T02:48:00;2.23;;;2.03;;
3939;SDS011;1984;48.312;9.244;2023-03-29T02:50:30;2.43;;;2.23;;
3939;SDS011;1984;48.312;9.244;2023-03-29T02:53:06;3.40;;;2.50;;
3939;SDS011;1984;48.312;9.244;2023-03-29T02:55:37;2.10;;;2.00;;
3939;SDS011;1984;48.312;9.244;2023-03-29T02:58:03;2.20;;;2.10;;
3939;SDS011;1984;48.312;9.244;2023-03-29T03:00:39;3.17;;;2.47;;
3939;SDS011;1984;48.312;9.244;2023-03-29T03:03:13;6.10;;;2.50;;
3939;SDS011;1984;48.312;9.244;2023-03-29T03:05:41;3.47;;;2.43;;
3939;SDS011;1984;48.312;9.244;2023-03-29T03:08:07;3.17;;;2.57;;
3939;SDS011;1984;48.312;9.244;2023-03-29T03:10:33;6.43;;;2.40;;
3939;SDS011;1984;48.312;9.244;2023-03-29T03:13:00;3.73;;;2.80;;
3939;SDS011;1984;48.312;9.244;2023-03-29T03:15:25;2.90;;;2.40;;
3939;SDS011;1984;48.312;9.244;2023-03-29T03:17:51;2.93;;;2.33;;
3939;SDS011;1984;48.312;9.244;2023-03-29T03:20:17;3.67;;;2.30;;
3939;SDS011;1984;48.312;9.244;2023-03-29T03:22:46;2.37;;;2.00;;
3939;SDS011;1984;48.312;9.244;2023-03-29T03:25:16;2.53;;;2.37;;
3939;SDS011;1984;48.312;9.244;2023-03-29T03:27:44;2.00;;;1.90;;
3939;SDS011;1984;48.312;9.244;2023-03-29T03:30:11;3.17;;;1.90;;
3939;SDS011;1984;48.312;9.244;2023-03-29T03:32:37;2.10;;;2.00;;
3939;SDS011;1984;48.312;9.244;2023-03-29T03:35:03;2.57;;;1.90;;
3939;SDS011;1984;48.312;9.244;2023-03-29T03:37:29;2.90;;;1.90;;
3939;SDS011;1984;48.312;9.244;2023-03-29T03:39:55;3.77;;;2.00;;
3939;SDS011;1984;48.312;9.244;2023-03-29T03:42:21;3.07;;;2.27;;
3939;SDS011;1984;48.312;9.244;2023-03-29T03:44:46;4.60;;;1.70;;
3939;SDS011;1984;48.312;9.244;2023-03-29T03:47:12;3.93;;;2.10;;
3939;SDS011;1984;48.312;9.244;2023-03-29T03:49:38;3.87;;;2.47;;
3939;SDS011;1984;48.312;9.244;2023-03-29T03:52:05;3.07;;;1.83;;
3939;SDS011;1984;48.312;9.244;2023-03-29T03:54:31;2.10;;;1.90;;
3939;SDS011;1984;48.312;9.244;2023-03-29T03:56:57;3.57;;;2.20;;
3939;SDS011;1984;48.312;9.244;2023-03-29T03:59:22;2.13;;;1.93;;
3939;SDS011;1984;48.312;9.244;2023-03-29T04:01:48;2.97;;;1.97;;
3939;SDS011;1984;48.312;9.244;2023-03-29T04:04:14;1.80;;;1.70;;
3939;SDS011;1984;48.312;9.244;2023-03-29T04:06:40;1.77;;;1.67;;
3939;SDS011;1984;48.312;9.244;2023-03-29T04:09:07;2.93;;;2.10;;
3939;SDS011;1984;48.312;9.244;2023-03-29T04:11:33;3.10;;;2.80;;
3939;SDS011;1984;48.312;9.244;2023-03-29T04:13:59;8.37;;;4.03;;
3939;SDS011;1984;48.312;9.244;2023-03-29T04:16:25;5.40;;;3.30;;
3939;SDS011;1984;48.312;9.244;2023-03-29T04:18:51;4.23;;;2.53;;
3939;SDS011;1984;48.312;9.244;2023-03-29T04:21:17;3.50;;;2.33;;
3939;SDS011;1984;48.312;9.244;2023-03-29T04:23:42;3.20;;;2.30;;
3939;SDS011;1984;48.312;9.244;2023-03-29T04:26:10;4.43;;;2.97;;
3939;SDS011;1984;48.312;9.244;2023-03-29T04:28:37;2.50;;;2.03;;
3939;SDS011;1984;48.312;9.244;2023-03-29T04:31:04;2.10;;;1.90;;
3939;SDS011;1984;48.312;9.244;2023-03-29T04:33:33;3.33;;;2.40;;
3939;SDS011;1984;48.312;9.244;2023-03-29T04:35:58;1.90;;;1.70;;
3939;SDS011;1984;48.312;9.244;2023-03-29T04:38:24;4.00;;;2.23;;
3939;SDS011;1984;48.312;9.244;2023-03-29T04:40:50;2.60;;;2.03;;
3939;SDS011;1984;48.312;9.244;2023-03-29T04:43:16;2.03;;;1.83;;
3939;SDS011;1984;48.312;9.244;2023-03-29T04:45:41;3.80;;;2.23;;
3939;SDS011;1984;48.312;9.244;2023-03-29T04:48:07;5.93;;;2.80;;
3939;SDS011;1984;48.312;9.244;2023-03-29T04:50:32;3.90;;;2.17;;
3939;SDS011;1984;48.312;9.244;2023-03-29T04:53:00;1.97;;;1.87;;
3939;SDS011;1984;48.312;9.244;2023-03-29T04:55:26;2.17;;;2.07;;
3939;SDS011;1984;48.312;9.244;2023-03-29T04:57:51;22.03;;;2.63;;
3939;SDS011;1984;48.312;9.244;2023-03-29T05:00:17;2.40;;;2.13;;
3939;SDS011;1984;48.312;9.244;2023-03-29T05:02:50;2.80;;;2.07;;
3939;SDS011;1984;48.312;9.244;2023-03-29T05:05:16;3.70;;;2.17;;
3939;SDS011;1984;48.312;9.244;2023-03-29T05:07:41;5.90;;;2.60;;
3939;SDS011;1984;48.312;9.244;2023-03-29T05:10:07;6.47;;;2.77;;
3939;SDS011;1984;48.312;9.244;2023-03-29T05:12:33;3.73;;;2.40;;
3939;SDS011;1984;48.312;9.244;2023-03-29T05:14:59;5.90;;;2.77;;
3939;SDS011;1984;48.312;9.244;2023-03-29T05:17:25;3.80;;;2.27;;
3939;SDS011;1984;48.312;9.244;2023-03-29T05:19:51;3.90;;;3.23;;
3939;SDS011;1984;48.312;9.244;2023-03-29T05:22:18;2.20;;;2.00;;
3939;SDS011;1984;48.312;9.244;2023-03-29T05:24:45;2.37;;;2.20;;
3939;SDS011;1984;48.312;9.244;2023-03-29T05:27:11;2.87;;;2.57;;
3939;SDS011;1984;48.312;9.244;2023-03-29T05:29:37;6.77;;;2.73;;
3939;SDS011;1984;48.312;9.244;2023-03-29T05:32:03;3.07;;;2.27;;
3939;SDS011;1984;48.312;9.244;2023-03-29T05:34:28;5.10;;;2.20;;
3939;SDS011;1984;48.312;9.244;2023-03-29T05:36:55;2.40;;;1.80;;
3939;SDS011;1984;48.312;9.244;2023-03-29T05:39:23;5.13;;;2.40;;
3939;SDS011;1984;48.312;9.244;2023-03-29T05:41:49;2.57;;;2.30;;
3939;SDS011;1984;48.312;9.244;2023-03-29T05:44:15;10.50;;;2.80;;
3939;SDS011;1984;48.312;9.244;2023-03-29T05:46:41;4.50;;;3.07;;
3939;SDS011;1984;48.312;9.244;2023-03-29T05:49:06;2.97;;;2.50;;
3939;SDS011;1984;48.312;9.244;2023-03-29T05:51:32;6.20;;;2.70;;
3939;SDS011;1984;48.312;9.244;2023-03-29T05:53:59;4.03;;;2.60;;
3939;SDS011;1984;48.312;9.244;2023-03-29T05:56:25;2.30;;;1.93;;
3939;SDS011;1984;48.312;9.244;2023-03-29T05:58:52;2.93;;;1.97;;
3939;SDS011;1984;48.312;9.244;2023-03-29T06:01:20;5.07;;;2.33;;
3939;SDS011;1984;48.312;9.244;2023-03-29T06:03:46;5.10;;;3.00;;
3939;SDS011;1984;48.312;9.244;2023-03-29T06:06:12;3.17;;;2.40;;
3939;SDS011;1984;48.312;9.244;2023-03-29T06:08:40;2.97;;;2.20;;
3939;SDS011;1984;48.312;9.244;2023-03-29T06:11:06;4.57;;;2.30;;
3939;SDS011;1984;48.312;9.244;2023-03-29T06:13:35;4.37;;;2.63;;
3939;SDS011;1984;48.312;9.244;2023-03-29T06:16:01;5.03;;;3.00;;
3939;SDS011;1984;48.312;9.244;2023-03-29T06:18:28;7.10;;;4.30;;
3939;SDS011;1984;48.312;9.244;2023-03-29T06:20:54;2.43;;;2.23;;
3939;SDS011;1984;48.312;9.244;2023-03-29T06:23:20;3.40;;;1.97;;
3939;SDS011;1984;48.312;9.244;2023-03-29T06:25:47;3.43;;;2.17;;
3939;SDS011;1984;48.312;9.244;2023-03-29T06:28:15;2.50;;;2.23;;
3939;SDS011;1984;48.312;9.244;2023-03-29T06:30:42;3.17;;;2.37;;
3939;SDS011;1984;48.312;9.244;2023-03-29T06:33:07;1.70;;;1.60;;
3939;SDS011;1984;48.312;9.244;2023-03-29T06:35:34;4.87;;;2.00;;
3939;SDS011;1984;48.312;9.244;2023-03-29T06:38:01;3.27;;;1.97;;
3939;SDS011;1984;48.312;9.244;2023-03-29T06:40:27;1.93;;;1.83;;
3939;SDS011;1984;48.312;9.244;2023-03-29T06:42:53;3.07;;;2.20;;
3939;SDS011;1984;48.312;9.244;2023-03-29T06:45:23;2.10;;;1.90;;
3939;SDS011;1984;48.312;9.244;2023-03-29T06:47:50;2.00;;;1.70;;
3939;SDS011;1984;48.312;9.244;2023-03-29T06:50:16;4.80;;;2.03;;
3939;SDS011;1984;48.312;9.244;2023-03-29T06:52:42;4.50;;;2.00;;
3939;SDS011;1984;48.312;9.244;2023-03-29T06:55:09;2.67;;;2.00;;
3939;SDS011;1984;48.312;9.244;2023-03-29T06:57:36;2.17;;;1.73;;
3939;SDS011;1984;48.312;9.244;2023-03-29T07:00:03;3.73;;;2.03;;
3939;SDS011;1984;48.312;9.244;2023-03-29T07:02:40;3.10;;;1.73;;
3939;SDS011;1984;48.312;9.244;2023-03-29T07:05:07;3.77;;;2.10;;
3939;SDS011;1984;48.312;9.244;2023-03-29T07:07:38;2.07;;;1.97;;
3939;SDS011;1984;48.312;9.244;2023-03-29T07:10:25;4.17;;;2.00;;
3939;SDS011;1984;48.312;9.244;2023-03-29T07:12:52;5.53;;;2.37;;
3939;SDS011;1984;48.312;9.244;2023-03-29T07:15:19;2.90;;;2.40;;
3939;SDS011;1984;48.312;9.244;2023-03-29T07:17:46;3.83;;;2.10;;
3939;SDS011;1984;48.312;9.244;2023-03-29T07:20:12;7.00;;;2.30;;
3939;SDS011;1984;48.312;9.244;2023-03-29T07:22:39;4.70;;;3.30;;
3939;SDS011;1984;48.312;9.244;2023-03-29T07:25:06;3.67;;;2.37;;
3939;SDS011;1984;48.312;9.244;2023-03-29T07:27:35;2.80;;;1.90;;
3939;SDS011;1984;48.312;9.244;2023-03-29T07:30:03;2.20;;;2.10;;
3939;SDS011;1984;48.312;9.244;2023-03-29T07:32:34;2.20;;;2.00;;
3939;SDS011;1984;48.312;9.244;2023-03-29T07:35:00;2.33;;;2.13;;
3939;SDS011;1984;48.312;9.244;2023-03-29T07:37:26;10.07;;;3.30;;
3939;SDS011;1984;48.312;9.244;2023-03-29T07:39:52;3.83;;;2.67;;
3939;SDS011;1984;48.312;9.244;2023-03-29T07:42:17;7.03;;;3.00;;
3939;SDS011;1984;48.312;9.244;2023-03-29T07:44:43;4.27;;;2.40;;
3939;SDS011;1984;48.312;9.244;2023-03-29T07:47:08;2.47;;;2.00;;
3939;SDS011;1984;48.312;9.244;2023-03-29T07:49:34;2.77;;;2.50;;
3939;SDS011;1984;48.312;9.244;2023-03-29T07:52:00;5.10;;;2.30;;
3939;SDS011;1984;48.312;9.244;2023-03-29T07:54:25;4.23;;;2.77;;
3939;SDS011;1984;48.312;9.244;2023-03-29T07:56:51;3.40;;;2.70;;
3939;SDS011;1984;48.312;9.244;2023-03-29T07:59:16;2.20;;;2.10;;
3939;SDS011;1984;48.312;9.244;2023-03-29T08:01:42;2.10;;;2.00;;
3939;SDS011;1984;48.312;9.244;2023-03-29T08:04:08;6.47;;;2.70;;
3939;SDS011;1984;48.312;9.244;2023-03-29T08:06:34;4.23;;;2.60;;
3939;SDS011;1984;48.312;9.244;2023-03-29T08:08:59;8.27;;;3.00;;
3939;SDS011;1984;48.312;9.244;2023-03-29T08:11:25;2.47;;;2.27;;
3939;SDS011;1984;48.312;9.244;2023-03-29T08:13:51;4.20;;;2.40;;
3939;SDS011;1984;48.312;9.244;2023-03-29T08:16:17;4.07;;;2.60;;
3939;SDS011;1984;48.312;9.244;2023-03-29T08:18:42;2.93;;;2.60;;
3939;SDS011;1984;48.312;9.244;2023-03-29T08:21:08;5.53;;;2.50;;
3939;SDS011;1984;48.312;9.244;2023-03-29T08:23:33;4.43;;;2.60;;
3939;SDS011;1984;48.312;9.244;2023-03-29T08:25:59;2.70;;;2.50;;
3939;SDS011;1984;48.312;9.244;2023-03-29T08:28:25;4.53;;;2.63;;
3939;SDS011;1984;48.312;9.244;2023-03-29T08:30:51;5.30;;;2.67;;
3939;SDS011;1984;48.312;9.244;2023-03-29T08:33:17;3.00;;;2.70;;
3939;SDS011;1984;48.312;9.244;2023-03-29T08:35:43;4.37;;;2.50;;
3939;SDS011;1984;48.312;9.244;2023-03-29T08:38:08;9.53;;;4.30;;
3939;SDS011;1984;48.312;9.244;2023-03-29T08:40:34;8.47;;;3.03;;
3939;SDS011;1984;48.312;9.244;2023-03-29T08:43:11;9.33;;;3.40;;
3939;SDS011;1984;48.312;9.244;2023-03-29T08:48:26;5.63;;;3.67;;
3939;SDS011;1984;48.312;9.244;2023-03-29T08:50:59;5.40;;;3.70;;
3939;SDS011;1984;48.312;9.244;2023-03-29T08:53:40;7.13;;;4.37;;
3939;SDS011;1984;48.312;9.244;2023-03-29T08:56:11;7.10;;;4.07;;
3939;SDS011;1984;48.312;9.244;2023-03-29T08:58:39;5.30;;;3.57;;
3939;SDS011;1984;48.312;9.244;2023-03-29T09:01:07;6.33;;;4.20;;
3939;SDS011;1984;48.312;9.244;2023-03-29T09:06:10;5.33;;;3.37;;
3939;SDS011;1984;48.312;9.244;2023-03-29T09:08:38;6.03;;;4.30;;
3939;SDS011;1984;48.312;9.244;2023-03-29T09:11:22;8.27;;;4.67;;
3939;SDS011;1984;48.312;9.244;2023-03-29T09:28:24;4.77;;;2.70;;
3939;SDS011;1984;48.312;9.244;2023-03-29T09:33:09;7.67;;;4.30;;
3939;SDS011;1984;48.312;9.244;2023-03-29T09:35:51;7.13;;;4.40;;
3939;SDS011;1984;48.312;9.244;2023-03-29T09:38:20;9.40;;;3.37;;
3939;SDS011;1984;48.312;9.244;2023-03-29T09:40:53;4.80;;;3.00;;
3939;SDS011;1984;48.312;9.244;2023-03-29T09:43:32;7.10;;;2.60;;
3939;SDS011;1984;48.312;9.244;2023-03-29T09:46:02;4.80;;;2.67;;
3939;SDS011;1984;48.312;9.244;2023-03-29T09:48:32;4.07;;;2.50;;
3939;SDS011;1984;48.312;9.244;2023-03-29T09:51:03;8.53;;;2.60;;
3939;SDS011;1984;48.312;9.244;2023-03-29T09:53:31;3.57;;;2.73;;
3939;SDS011;1984;48.312;9.244;2023-03-29T09:55:57;3.70;;;2.37;;
3939;SDS011;1984;48.312;9.244;2023-03-29T09:58:26;5.27;;;3.20;;
3939;SDS011;1984;48.312;9.244;2023-03-29T10:00:58;2.40;;;1.97;;
3939;SDS011;1984;48.312;9.244;2023-03-29T10:03:29;3.13;;;2.67;;
3939;SDS011;1984;48.312;9.244;2023-03-29T10:05:57;13.60;;;4.40;;
3939;SDS011;1984;48.312;9.244;2023-03-29T10:08:28;7.13;;;3.77;;
3939;SDS011;1984;48.312;9.244;2023-03-29T10:11:02;5.10;;;2.63;;
3939;SDS011;1984;48.312;9.244;2023-03-29T10:13:32;8.47;;;3.30;;
3939;SDS011;1984;48.312;9.244;2023-03-29T10:16:04;4.13;;;3.00;;
3939;SDS011;1984;48.312;9.244;2023-03-29T10:18:32;5.30;;;3.00;;
3939;SDS011;1984;48.312;9.244;2023-03-29T10:21:08;3.20;;;2.40;;
3939;SDS011;1984;48.312;9.244;2023-03-29T10:23:36;3.40;;;2.30;;
3939;SDS011;1984;48.312;9.244;2023-03-29T10:26:03;4.97;;;2.00;;
3939;SDS011;1984;48.312;9.244;2023-03-29T10:28:33;4.43;;;2.00;;
3939;SDS011;1984;48.312;9.244;2023-03-29T10:31:00;2.03;;;1.83;;
3939;SDS011;1984;48.312;9.244;2023-03-29T10:33:31;2.63;;;1.97;;
3939;SDS011;1984;48.312;9.244;2023-03-29T10:35:58;3.70;;;2.17;;
3939;SDS011;1984;48.312;9.244;2023-03-29T10:38:27;2.10;;;1.80;;
3939;SDS011;1984;48.312;9.244;2023-03-29T10:40:54;1.27;;;1.17;;
3939;SDS011;1984;48.312;9.244;2023-03-29T10:43:34;1.13;;;1.03;;
3939;SDS011;1984;48.312;9.244;2023-03-29T10:46:17;3.30;;;1.70;;
3939;SDS011;1984;48.312;9.244;2023-03-29T10:48:50;3.90;;;1.10;;
3939;SDS011;1984;48.312;9.244;2023-03-29T10:51:19;3.60;;;1.20;;
3939;SDS011;1984;48.312;9.244;2023-03-29T10:53:45;2.50;;;1.27;;
3939;SDS011;1984;48.312;9.244;2023-03-29T10:56:28;1.03;;;1.03;;
3939;SDS011;1984;48.312;9.244;2023-03-29T11:12:47;0.90;;;0.90;;
3939;SDS011;1984;48.312;9.244;2023-03-29T11:23:48;1.80;;;1.10;;
3939;SDS011;1984;48.312;9.244;2023-03-29T11:29:50;2.23;;;1.00;;
3939;SDS011;1984;48.312;9.244;2023-03-29T11:35:16;1.00;;;1.00;;
3939;SDS011;1984;48.312;9.244;2023-03-29T11:37:55;3.23;;;0.97;;
3939;SDS011;1984;48.312;9.244;2023-03-29T11:45:56;1.73;;;1.00;;
3939;SDS011;1984;48.312;9.244;2023-03-29T11:48:38;6.40;;;1.80;;
3939;SDS011;1984;48.312;9.244;2023-03-29T11:51:30;4.33;;;1.20;;
3939;SDS011;1984;48.312;9.244;2023-03-29T11:54:04;12.00;;;1.57;;
3939;SDS011;1984;48.312;9.244;2023-03-29T11:56:44;6.63;;;0.97;;
3939;SDS011;1984;48.312;9.244;2023-03-29T11:59:19;2.57;;;1.43;;
3939;SDS011;1984;48.312;9.244;2023-03-29T12:01:55;1.73;;;0.90;;
3939;SDS011;1984;48.312;9.244;2023-03-29T12:04:45;5.83;;;1.30;;
3939;SDS011;1984;48.312;9.244;2023-03-29T12:07:19;1.30;;;1.20;;
3939;SDS011;1984;48.312;9.244;2023-03-29T12:10:00;1.70;;;1.07;;
3939;SDS011;1984;48.312;9.244;2023-03-29T12:15:24;1.83;;;1.00;;
3939;SDS011;1984;48.312;9.244;2023-03-29T12:20:57;0.97;;;0.80;;
3939;SDS011;1984;48.312;9.244;2023-03-29T12:23:27;4.13;;;1.10;;
3939;SDS011;1984;48.312;9.244;2023-03-29T12:26:00;6.37;;;0.90;;
3939;SDS011;1984;48.312;9.244;2023-03-29T12:37:20;1.30;;;0.90;;
3939;SDS011;1984;48.312;9.244;2023-03-29T12:40:18;1.10;;;1.07;;
3939;SDS011;1984;48.312;9.244;2023-03-29T12:42:53;3.60;;;1.00;;
3939;SDS011;1984;48.312;9.244;2023-03-29T12:45:30;1.87;;;1.00;;
3939;SDS011;1984;48.312;9.244;2023-03-29T12:48:01;1.90;;;0.90;;
3939;SDS011;1984;48.312;9.244;2023-03-29T12:50:31;1.57;;;1.10;;
3939;SDS011;1984;48.312;9.244;2023-03-29T12:53:00;1.37;;;1.00;;
3939;SDS011;1984;48.312;9.244;2023-03-29T12:55:49;2.87;;;1.13;;
3939;SDS011;1984;48.312;9.244;2023-03-29T12:58:49;0.80;;;0.80;;
3939;SDS011;1984;48.312;9.244;2023-03-29T13:01:22;1.23;;;1.03;;
3939;SDS011;1984;48.312;9.244;2023-03-29T13:08:58;1.07;;;0.90;;
3939;SDS011;1984;48.312;9.244;2023-03-29T13:11:26;1.37;;;0.97;;
3939;SDS011;1984;48.312;9.244;2023-03-29T13:13:58;2.00;;;0.90;;
3939;SDS011;1984;48.312;9.244;2023-03-29T13:16:35;1.10;;;0.93;;
3939;SDS011;1984;48.312;9.244;2023-03-29T13:19:12;4.30;;;0.83;;
3939;SDS011;1984;48.312;9.244;2023-03-29T13:29:54;4.17;;;0.90;;
3939;SDS011;1984;48.312;9.244;2023-03-29T13:35:46;1.87;;;1.00;;
3939;SDS011;1984;48.312;9.244;2023-03-29T13:38:21;6.47;;;0.83;;
3939;SDS011;1984;48.312;9.244;2023-03-29T13:45:44;0.70;;;0.70;;
3939;SDS011;1984;48.312;9.244;2023-03-29T13:51:01;1.40;;;0.97;;
3939;SDS011;1984;48.312;9.244;2023-03-29T13:56:18;4.17;;;1.47;;
3939;SDS011;1984;48.312;9.244;2023-03-29T13:58:50;3.13;;;1.00;;
3939;SDS011;1984;48.312;9.244;2023-03-29T14:01:24;1.80;;;1.00;;
3939;SDS011;1984;48.312;9.244;2023-03-29T14:04:12;7.23;;;1.10;;
3939;SDS011;1984;48.312;9.244;2023-03-29T14:06:47;4.60;;;0.87;;
3939;SDS011;1984;48.312;9.244;2023-03-29T14:09:16;2.13;;;1.10;;
3939;SDS011;1984;48.312;9.244;2023-03-29T14:11:45;1.23;;;0.90;;
3939;SDS011;1984;48.312;9.244;2023-03-29T14:14:11;0.70;;;0.70;;
3939;SDS011;1984;48.312;9.244;2023-03-29T14:16:37;0.80;;;0.80;;
3939;SDS011;1984;48.312;9.244;2023-03-29T14:19:17;1.67;;;0.83;;
3939;SDS011;1984;48.312;9.244;2023-03-29T14:21:48;0.87;;;0.87;;
3939;SDS011;1984;48.312;9.244;2023-03-29T14:24:24;3.93;;;0.93;;
3939;SDS011;1984;48.312;9.244;2023-03-29T14:26:52;1.83;;;1.27;;
3939;SDS011;1984;48.312;9.244;2023-03-29T14:29:18;2.83;;;0.90;;
3939;SDS011;1984;48.312;9.244;2023-03-29T14:31:43;1.43;;;1.00;;
3939;SDS011;1984;48.312;9.244;2023-03-29T14:34:11;2.93;;;1.20;;
3939;SDS011;1984;48.312;9.244;2023-03-29T14:36:45;7.47;;;1.60;;
3939;SDS011;1984;48.312;9.244;2023-03-29T14:39:19;0.87;;;0.87;;
3939;SDS011;1984;48.312;9.244;2023-03-29T14:41:50;2.03;;;1.10;;
3939;SDS011;1984;48.312;9.244;2023-03-29T14:44:17;2.20;;;1.17;;
3939;SDS011;1984;48.312;9.244;2023-03-29T14:46:45;9.13;;;1.10;;
3939;SDS011;1984;48.312;9.244;2023-03-29T14:49:13;1.30;;;1.17;;
3939;SDS011;1984;48.312;9.244;2023-03-29T14:51:43;1.93;;;1.30;;
3939;SDS011;1984;48.312;9.244;2023-03-29T14:54:16;8.73;;;1.27;;
3939;SDS011;1984;48.312;9.244;2023-03-29T14:56:53;1.87;;;1.00;;
3939;SDS011;1984;48.312;9.244;2023-03-29T14:59:27;3.03;;;1.27;;
3939;SDS011;1984;48.312;9.244;2023-03-29T15:02:00;5.60;;;1.50;;
3939;SDS011;1984;48.312;9.244;2023-03-29T15:04:32;2.43;;;1.30;;
3939;SDS011;1984;48.312;9.244;2023-03-29T15:06:58;3.07;;;1.10;;
3939;SDS011;1984;48.312;9.244;2023-03-29T15:09:29;2.40;;;1.40;;
3939;SDS011;1984;48.312;9.244;2023-03-29T15:11:57;1.30;;;1.00;;
3939;SDS011;1984;48.312;9.244;2023-03-29T15:14:25;6.30;;;1.17;;
3939;SDS011;1984;48.312;9.244;2023-03-29T15:16:55;1.77;;;1.00;;
3939;SDS011;1984;48.312;9.244;2023-03-29T15:19:26;2.30;;;1.00;;
3939;SDS011;1984;48.312;9.244;2023-03-29T15:21:51;1.90;;;1.10;;
3939;SDS011;1984;48.312;9.244;2023-03-29T15:24:21;4.70;;;1.43;;
3939;SDS011;1984;48.312;9.244;2023-03-29T15:26:56;1.17;;;1.07;;
3939;SDS011;1984;48.312;9.244;2023-03-29T15:29:31;2.67;;;1.10;;
3939;SDS011;1984;48.312;9.244;2023-03-29T15:31:59;2.07;;;1.23;;
3939;SDS011;1984;48.312;9.244;2023-03-29T15:34:25;4.37;;;1.87;;
3939;SDS011;1984;48.312;9.244;2023-03-29T15:36:52;5.10;;;1.70;;
3939;SDS011;1984;48.312;9.244;2023-03-29T15:39:18;0.97;;;0.97;;
3939;SDS011;1984;48.312;9.244;2023-03-29T15:41:48;2.27;;;0.97;;
3939;SDS011;1984;48.312;9.244;2023-03-29T15:44:15;1.93;;;1.20;;
3939;SDS011;1984;48.312;9.244;2023-03-29T15:46:45;1.70;;;1.30;;
3939;SDS011;1984;48.312;9.244;2023-03-29T15:49:11;1.40;;;1.03;;
3939;SDS011;1984;48.312;9.244;2023-03-29T15:51:37;1.70;;;1.20;;
3939;SDS011;1984;48.312;9.244;2023-03-29T15:54:03;3.57;;;0.87;;
3939;SDS011;1984;48.312;9.244;2023-03-29T15:56:30;4.77;;;1.40;;
3939;SDS011;1984;48.312;9.244;2023-03-29T15:59:01;4.83;;;1.27;;
3939;SDS011;1984;48.312;9.244;2023-03-29T16:01:28;2.90;;;1.10;;
3939;SDS011;1984;48.312;9.244;2023-03-29T16:04:11;3.40;;;1.10;;
3939;SDS011;1984;48.312;9.244;2023-03-29T16:06:38;2.73;;;1.23;;
3939;SDS011;1984;48.312;9.244;2023-03-29T16:09:05;4.50;;;1.30;;
3939;SDS011;1984;48.312;9.244;2023-03-29T16:11:31;1.83;;;1.07;;
3939;SDS011;1984;48.312;9.244;2023-03-29T16:13:57;2.03;;;1.10;;
3939;SDS011;1984;48.312;9.244;2023-03-29T16:16:23;1.10;;;1.00;;
3939;SDS011;1984;48.312;9.244;2023-03-29T16:18:49;4.07;;;1.93;;
3939;SDS011;1984;48.312;9.244;2023-03-29T16:21:15;2.40;;;1.13;;
3939;SDS011;1984;48.312;9.244;2023-03-29T16:23:44;6.70;;;1.20;;
3939;SDS011;1984;48.312;9.244;2023-03-29T16:26:10;7.33;;;1.07;;
3939;SDS011;1984;48.312;9.244;2023-03-29T16:28:37;1.33;;;1.00;;
3939;SDS011;1984;48.312;9.244;2023-03-29T16:31:03;3.17;;;1.27;;
3939;SDS011;1984;48.312;9.244;2023-03-29T16:33:29;6.23;;;1.80;;
3939;SDS011;1984;48.312;9.244;2023-03-29T16:35:54;7.50;;;1.33;;
3939;SDS011;1984;48.312;9.244;2023-03-29T16:38:20;2.03;;;1.30;;
3939;SDS011;1984;48.312;9.244;2023-03-29T16:40:48;5.10;;;1.60;;
3939;SDS011;1984;48.312;9.244;2023-03-29T16:43:14;2.60;;;1.17;;
3939;SDS011;1984;48.312;9.244;2023-03-29T16:45:40;1.63;;;1.00;;
3939;SDS011;1984;48.312;9.244;2023-03-29T16:48:05;3.93;;;1.47;;
3939;SDS011;1984;48.312;9.244;2023-03-29T16:50:33;1.97;;;1.27;;
3939;SDS011;1984;48.312;9.244;2023-03-29T16:52:59;3.33;;;1.40;;
3939;SDS011;1984;48.312;9.244;2023-03-29T16:55:24;4.30;;;1.83;;
3939;SDS011;1984;48.312;9.244;2023-03-29T16:57:50;3.97;;;1.40;;
3939;SDS011;1984;48.312;9.244;2023-03-29T17:00:16;5.10;;;1.90;;
3939;SDS011;1984;48.312;9.244;2023-03-29T17:02:43;2.83;;;1.50;;
3939;SDS011;1984;48.312;9.244;2023-03-29T17:05:10;2.40;;;1.53;;
3939;SDS011;1984;48.312;9.244;2023-03-29T17:07:36;14.20;;;2.10;;
3939;SDS011;1984;48.312;9.244;2023-03-29T17:10:03;9.40;;;1.67;;
3939;SDS011;1984;48.312;9.244;2023-03-29T17:12:30;5.33;;;2.00;;
3939;SDS011;1984;48.312;9.244;2023-03-29T17:14:56;10.40;;;2.00;;
3939;SDS011;1984;48.312;9.244;2023-03-29T17:17:22;10.87;;;2.37;;